Terminal Aerodrome Forecast
Issued by NWS Houston/Galveston, TX

Home | Current Version | Previous Version | Text Only | Print | Product List | Glossary On
Versions: 1 2 3 4 5 6 7 8 9 10 11 12 13 14 15 16 17 18 19 20 21 22 23 24 25 26 27 28 29
000
FTUS44 KHGX 290809 AAA
TAFCLL
TAF AMD
KCLL 290809Z 2908/3006 18012G20KT P6SM VCTS BKN022 OVC035CB
      TEMPO 2908/2911 28020G35KT 2SM TSRA BKN015 OVC025CB
     FM291100 17014G25KT P6SM -SHRA BKN020
     FM291500 09007KT P6SM SCT025 OVC050
     FM292100 20012KT P6SM OVC050
     FM300100 19005KT P6SM BKN250=

USA.gov is the U.S. government's official web portal to all federal, state and local government web resources and services.